createdAt,value
2023-02-21T00:02:43.610Z,0.65
2023-02-21T00:05:29.045Z,0.50
2023-02-21T00:08:15.691Z,0.40
2023-02-21T00:11:00.990Z,1.05
2023-02-21T00:13:46.258Z,0.52
2023-02-21T00:16:34.239Z,0.95
2023-02-21T00:19:19.818Z,0.82
2023-02-21T00:22:05.074Z,0.60
2023-02-21T00:24:51.917Z,0.68
2023-02-21T00:27:37.360Z,0.55
2023-02-21T00:30:23.775Z,0.75
2023-02-21T00:33:09.566Z,0.75
2023-02-21T00:35:55.795Z,0.88
2023-02-21T00:38:41.168Z,0.80
2023-02-21T00:41:28.362Z,0.98
2023-02-21T00:44:13.736Z,0.35
2023-02-21T00:46:59.796Z,0.50
2023-02-21T00:49:45.076Z,0.68
2023-02-21T00:52:30.433Z,0.93
2023-02-21T00:55:15.902Z,0.88
2023-02-21T00:58:02.492Z,0.57
2023-02-21T01:00:47.897Z,0.68
2023-02-21T01:03:33.206Z,0.98
2023-02-21T01:06:18.458Z,0.93
2023-02-21T01:09:05.898Z,1.67
2023-02-21T01:11:51.808Z,0.90
2023-02-21T01:14:38.412Z,0.95
2023-02-21T01:17:23.730Z,0.82
2023-02-21T01:20:09.002Z,0.88
2023-02-21T01:22:54.438Z,0.90
2023-02-21T01:25:39.797Z,0.95
2023-02-21T01:28:25.199Z,0.80
2023-02-21T01:31:11.966Z,0.75
2023-02-21T01:33:59.003Z,1.40
2023-02-21T01:36:45.198Z,0.77
2023-02-21T01:39:31.270Z,0.75
2023-02-21T01:42:18.598Z,1.25
2023-02-21T01:45:06.672Z,1.25
2023-02-21T01:47:53.573Z,1.08
2023-02-21T01:50:41.879Z,0.90
2023-02-21T01:53:30.704Z,1.30
2023-02-21T01:56:19.209Z,0.77
2023-02-21T01:59:07.328Z,1.10
2023-02-21T02:01:57.673Z,1.73
2023-02-21T02:04:44.559Z,1.63
2023-02-21T02:07:30.356Z,1.15
2023-02-21T02:10:15.726Z,0.90
2023-02-21T02:13:09.922Z,0.80
2023-02-21T02:15:44.687Z,1.05
2023-02-21T02:18:40.885Z,1.70
2023-02-21T02:21:36.404Z,1.15
2023-02-21T02:24:29.451Z,1.05
2023-02-21T02:27:20.415Z,0.90
2023-02-21T02:30:33.957Z,1.05
2023-02-21T02:33:31.313Z,0.93
2023-02-21T02:36:04.131Z,1.50
2023-02-21T02:38:35.433Z,1.42
2023-02-21T02:41:09.746Z,1.00
2023-02-21T02:43:42.428Z,1.33
2023-02-21T02:46:14.289Z,1.10
2023-02-21T02:48:45.623Z,1.42
2023-02-21T02:51:16.978Z,1.30
2023-02-21T02:53:45.921Z,1.02
2023-02-21T02:56:17.156Z,0.88
2023-02-21T02:58:49.370Z,1.88
2023-02-21T03:01:35.713Z,1.48
2023-02-21T03:04:17.394Z,1.17
2023-02-21T03:06:52.359Z,0.93
2023-02-21T03:09:26.355Z,0.98
2023-02-21T03:12:01.755Z,1.20
2023-02-21T03:14:32.501Z,0.93
2023-02-21T03:17:03.873Z,1.48
2023-02-21T03:19:34.543Z,1.85
2023-02-21T03:22:06.633Z,1.42
2023-02-21T03:24:35.778Z,1.95
2023-02-21T03:27:07.545Z,2.03
2023-02-21T03:29:53.387Z,1.25
2023-02-21T03:32:25.555Z,1.40
2023-02-21T03:34:54.908Z,1.35
2023-02-21T03:37:32.432Z,0.60
2023-02-21T03:40:01.100Z,1.20
2023-02-21T03:42:31.480Z,1.20
2023-02-21T03:44:59.348Z,1.58
2023-02-21T03:47:28.469Z,1.42
2023-02-21T03:49:56.890Z,1.67
2023-02-21T03:52:26.458Z,1.33
2023-02-21T03:54:54.432Z,1.38
2023-02-21T03:57:26.848Z,1.25
2023-02-21T03:59:55.041Z,1.40
2023-02-21T04:02:23.104Z,1.10
2023-02-21T04:04:51.253Z,1.35
2023-02-21T04:07:21.683Z,1.95
2023-02-21T04:09:51.988Z,1.85
2023-02-21T04:12:26.925Z,1.88
2023-02-21T04:14:57.234Z,1.40
2023-02-21T04:17:26.102Z,1.65
2023-02-21T04:19:55.529Z,1.52
2023-02-21T04:22:24.039Z,2.65
2023-02-21T04:24:53.576Z,1.52
2023-02-21T04:27:23.464Z,1.65
2023-02-21T04:29:55.545Z,1.77
2023-02-21T04:32:23.762Z,1.45
2023-02-21T04:34:51.702Z,2.72
2023-02-21T04:37:19.665Z,1.20
2023-02-21T04:39:48.368Z,1.27
2023-02-21T04:42:19.123Z,1.90
2023-02-21T04:44:59.377Z,1.75
2023-02-21T04:47:28.393Z,1.73
2023-02-21T04:49:56.229Z,2.05
2023-02-21T04:52:24.497Z,1.52
2023-02-21T04:54:52.385Z,1.73
2023-02-21T04:57:21.540Z,1.65
2023-02-21T04:59:49.501Z,2.08
2023-02-21T05:02:17.451Z,1.63
2023-02-21T05:04:45.286Z,1.85
2023-02-21T05:07:13.130Z,2.17
2023-02-21T05:09:41.026Z,2.20
2023-02-21T05:12:11.969Z,1.58
2023-02-21T05:14:41.903Z,1.58
2023-02-21T05:17:10.558Z,1.83
2023-02-21T05:19:38.626Z,1.70
2023-02-21T05:22:07.705Z,2.20
2023-02-21T05:24:35.927Z,2.67
2023-02-21T05:27:04.296Z,1.20
2023-02-21T05:29:32.140Z,1.83
2023-02-21T05:32:01.806Z,1.77
2023-02-21T05:34:29.685Z,1.40
2023-02-21T05:36:57.507Z,1.90
2023-02-21T05:39:25.605Z,1.48
2023-02-21T05:41:53.524Z,1.60
2023-02-21T05:44:21.446Z,1.80
2023-02-21T05:46:49.386Z,1.88
2023-02-21T05:49:18.637Z,2.03
2023-02-21T05:51:46.548Z,2.40
2023-02-21T05:54:17.481Z,1.98
2023-02-21T05:56:46.977Z,2.30
2023-02-21T05:59:15.960Z,1.75
2023-02-21T06:01:43.945Z,2.25
2023-02-21T06:04:11.931Z,3.15
2023-02-21T06:06:41.148Z,2.22
2023-02-21T06:09:09.368Z,1.80
2023-02-21T06:11:38.599Z,2.33
2023-02-21T06:14:07.504Z,1.98
2023-02-21T06:16:35.637Z,2.63
2023-02-21T06:19:04.189Z,1.70
2023-02-21T06:21:32.052Z,3.13
2023-02-21T06:24:01.340Z,1.50
2023-02-21T06:26:29.468Z,2.17
2023-02-21T06:28:57.331Z,1.90
2023-02-21T06:31:25.331Z,2.97
2023-02-21T06:33:53.304Z,1.80
2023-02-21T06:36:22.597Z,2.13
2023-02-21T06:38:52.184Z,2.22
2023-02-21T06:41:24.611Z,2.63
2023-02-21T06:43:52.734Z,3.58
2023-02-21T06:46:22.878Z,2.15
2023-02-21T06:48:51.258Z,2.58
2023-02-21T06:51:19.450Z,2.83
2023-02-21T06:53:51.145Z,2.53
2023-02-21T06:56:19.170Z,2.95
2023-02-21T06:58:48.377Z,3.03
2023-02-21T07:01:16.490Z,2.20
2023-02-21T07:03:45.466Z,2.17
2023-02-21T07:06:13.373Z,3.30
2023-02-21T07:08:41.327Z,2.03
2023-02-21T07:11:09.533Z,2.25
2023-02-21T07:13:37.709Z,2.47
2023-02-21T07:16:07.718Z,3.08
2023-02-21T07:18:35.653Z,2.67
2023-02-21T07:21:03.534Z,2.05
2023-02-21T07:23:31.438Z,1.65
2023-02-21T07:25:59.266Z,2.35
2023-02-21T07:28:27.098Z,1.90
2023-02-21T07:30:55.371Z,2.65
2023-02-21T07:33:24.670Z,2.08
2023-02-21T07:35:52.529Z,2.60
2023-02-21T07:38:23.905Z,1.75
2023-02-21T07:40:55.391Z,1.85
2023-02-21T07:43:23.352Z,2.22
2023-02-21T07:45:51.295Z,2.28
2023-02-21T07:48:19.166Z,2.97
2023-02-21T07:50:48.411Z,2.38
2023-02-21T07:53:17.419Z,1.90
2023-02-21T07:55:45.616Z,2.92
2023-02-21T07:58:13.626Z,1.42
2023-02-21T08:00:41.838Z,1.98
2023-02-21T08:03:11.149Z,2.80
2023-02-21T08:05:39.092Z,2.90
2023-02-21T08:08:09.998Z,2.08
2023-02-21T08:10:37.952Z,2.97
2023-02-21T08:13:06.250Z,2.90
2023-02-21T08:15:34.118Z,2.97
2023-02-21T08:18:01.974Z,2.05
2023-02-21T08:20:29.908Z,2.80
2023-02-21T08:22:58.164Z,2.15
2023-02-21T08:25:27.378Z,2.42
2023-02-21T08:27:55.422Z,2.45
2023-02-21T08:30:23.593Z,1.98
2023-02-21T08:32:51.581Z,2.88
2023-02-21T08:35:20.612Z,3.40
2023-02-21T08:37:50.004Z,2.15
2023-02-21T08:40:20.549Z,2.08
2023-02-21T08:42:51.460Z,3.58
2023-02-21T08:45:21.432Z,2.28
2023-02-21T08:47:49.365Z,2.85
2023-02-21T08:50:17.330Z,1.65
2023-02-21T08:52:47.018Z,3.05
2023-02-21T08:55:15.715Z,2.60
2023-02-21T08:57:43.554Z,2.63
2023-02-21T09:00:16.179Z,2.10
2023-02-21T09:02:44.395Z,2.38
2023-02-21T09:05:14.367Z,2.53
2023-02-21T09:07:42.754Z,2.47
2023-02-21T09:10:11.448Z,3.30
2023-02-21T09:12:39.916Z,2.90
2023-02-21T09:15:09.127Z,2.28
2023-02-21T09:17:38.467Z,2.83
2023-02-21T09:20:08.791Z,2.65
2023-02-21T09:22:36.749Z,2.60
2023-02-21T09:25:05.924Z,2.35
2023-02-21T09:27:39.595Z,3.85
2023-02-21T09:30:10.649Z,2.25
2023-02-21T09:32:40.136Z,2.45
2023-02-21T09:35:09.109Z,2.65
2023-02-21T09:37:38.965Z,2.53
2023-02-21T09:40:12.733Z,2.85
2023-02-21T09:42:41.513Z,2.55
2023-02-21T09:45:16.060Z,2.97
2023-02-21T09:47:45.723Z,3.05
2023-02-21T09:50:15.554Z,2.85
2023-02-21T09:52:43.637Z,2.10
2023-02-21T09:55:16.276Z,2.95
2023-02-21T09:57:44.378Z,3.10
2023-02-21T10:00:18.844Z,3.33
2023-02-21T10:02:55.854Z,2.83
2023-02-21T10:05:31.751Z,3.78
2023-02-21T10:08:02.920Z,1.90
2023-02-21T10:10:34.232Z,2.10
2023-02-21T10:13:09.053Z,3.22
2023-02-21T10:15:43.618Z,3.03
2023-02-21T10:18:23.705Z,3.42
2023-02-21T10:20:54.775Z,2.95
2023-02-21T10:23:25.920Z,2.70
2023-02-21T10:25:58.499Z,3.47
2023-02-21T10:28:27.136Z,3.22
2023-02-21T10:30:59.416Z,3.50
2023-02-21T10:33:29.475Z,2.83
2023-02-21T10:35:57.330Z,2.70
2023-02-21T10:38:27.022Z,2.72
2023-02-21T10:40:57.586Z,2.33
2023-02-21T10:43:31.438Z,2.42
2023-02-21T10:46:01.002Z,3.00
2023-02-21T10:48:35.122Z,3.13
2023-02-21T10:51:08.738Z,3.05
2023-02-21T10:53:38.119Z,3.58
2023-02-21T10:56:24.844Z,2.85
2023-02-21T10:58:55.697Z,2.67
2023-02-21T11:01:32.596Z,3.03
2023-02-21T11:04:03.419Z,3.20
2023-02-21T11:06:35.846Z,2.30
2023-02-21T11:09:04.795Z,2.22
2023-02-21T11:11:37.071Z,2.70
2023-02-21T11:14:21.189Z,2.10
2023-02-21T11:17:07.733Z,1.90
2023-02-21T11:19:52.030Z,4.30
2023-02-21T11:22:23.217Z,2.75
2023-02-21T11:25:02.407Z,3.45
2023-02-21T11:27:32.226Z,3.78
2023-02-21T11:30:01.225Z,2.58
2023-02-21T11:32:33.041Z,2.83
2023-02-21T11:35:09.407Z,3.13
2023-02-21T11:37:49.227Z,4.70
2023-02-21T11:40:24.590Z,2.35
2023-02-21T11:42:52.510Z,1.98
2023-02-21T11:45:26.483Z,2.85
2023-02-21T11:47:58.703Z,2.15
2023-02-21T11:50:30.985Z,2.72
2023-02-21T11:53:03.642Z,2.35
2023-02-21T11:55:31.612Z,2.83
2023-02-21T11:58:07.923Z,2.92
2023-02-21T12:00:44.494Z,3.00
2023-02-21T12:03:47.385Z,2.40
2023-02-21T12:06:22.590Z,3.00
2023-02-21T12:08:53.853Z,3.28
2023-02-21T12:11:43.387Z,2.42
2023-02-21T12:14:19.765Z,2.47
2023-02-21T12:16:56.541Z,2.83
2023-02-21T12:19:34.900Z,2.55
2023-02-21T12:22:05.922Z,2.28
2023-02-21T12:24:53.539Z,2.85
2023-02-21T12:27:29.966Z,1.90
2023-02-21T12:30:16.416Z,1.92
2023-02-21T12:32:52.470Z,2.75
2023-02-21T12:35:42.504Z,2.45
2023-02-21T12:38:16.116Z,2.53
2023-02-21T12:40:51.243Z,2.45
2023-02-21T12:43:45.907Z,3.38
2023-02-21T12:46:21.290Z,3.50
2023-02-21T12:48:55.493Z,2.65
2023-02-21T12:51:26.883Z,2.83
2023-02-21T12:53:58.303Z,2.00
2023-02-21T12:56:28.715Z,2.78
2023-02-21T12:59:00.271Z,2.20
2023-02-21T13:01:33.126Z,2.72
2023-02-21T13:04:08.154Z,2.17
2023-02-21T13:06:37.968Z,2.90
2023-02-21T13:09:21.594Z,2.83
2023-02-21T13:11:58.234Z,2.60
2023-02-21T13:14:30.068Z,2.40
2023-02-21T13:16:58.041Z,2.17
2023-02-21T13:19:26.732Z,3.53
2023-02-21T13:25:36.219Z,3.00
2023-02-21T13:28:07.241Z,2.88
2023-02-21T13:30:40.144Z,2.97
2023-02-21T13:33:08.359Z,2.80
2023-02-21T13:35:39.116Z,3.78
2023-02-21T13:38:08.606Z,2.22
2023-02-21T13:40:39.996Z,3.50
2023-02-21T13:43:12.366Z,3.45
2023-02-21T13:45:41.392Z,2.42
2023-02-21T13:48:24.389Z,3.83
2023-02-21T13:50:54.024Z,3.03
2023-02-21T13:53:23.395Z,2.88
2023-02-21T13:56:20.620Z,2.53
2023-02-21T13:58:49.966Z,2.72
2023-02-21T14:01:25.920Z,2.47
2023-02-21T14:03:58.295Z,2.78
2023-02-21T14:06:44.724Z,2.45
2023-02-21T14:09:15.050Z,2.30
2023-02-21T14:11:50.027Z,2.10
2023-02-21T14:14:24.560Z,2.47
2023-02-21T14:16:55.478Z,2.30
2023-02-21T14:19:26.618Z,2.97
2023-02-21T14:22:02.888Z,3.00
2023-02-21T14:24:33.640Z,2.75
2023-02-21T14:27:07.474Z,1.98
2023-02-21T14:29:37.699Z,3.55
2023-02-21T14:32:26.203Z,2.13
2023-02-21T14:34:57.443Z,2.90
2023-02-21T14:37:29.599Z,3.13
2023-02-21T14:40:00.071Z,2.85
2023-02-21T14:42:39.486Z,2.60
2023-02-21T14:45:28.257Z,3.00
2023-02-21T14:48:11.388Z,3.20
2023-02-21T14:53:34.400Z,2.75
2023-02-21T14:56:38.918Z,2.63
2023-02-21T14:59:38.581Z,3.03
2023-02-21T15:02:17.891Z,3.00
2023-02-21T15:04:52.460Z,2.63
2023-02-21T15:07:24.569Z,2.75
2023-02-21T15:10:16.616Z,2.77
2023-02-21T15:12:47.825Z,2.80
2023-02-21T15:15:20.301Z,3.10
2023-02-21T15:17:58.195Z,2.90
2023-02-21T15:20:26.114Z,3.88
2023-02-21T15:22:58.703Z,2.80
2023-02-21T15:25:26.650Z,3.15
2023-02-21T15:28:06.533Z,2.90
2023-02-21T15:30:41.164Z,3.08
2023-02-21T15:33:15.336Z,3.28
2023-02-21T15:35:46.358Z,2.78
2023-02-21T15:38:19.029Z,3.50
2023-02-21T15:40:47.346Z,3.08
2023-02-21T15:43:25.706Z,2.67
2023-02-21T15:45:56.201Z,2.47
2023-02-21T15:48:24.086Z,3.40
2023-02-21T15:50:52.094Z,2.60
2023-02-21T15:53:21.517Z,2.75
2023-02-21T15:55:50.115Z,3.17
2023-02-21T15:58:22.512Z,3.38
2023-02-21T16:00:51.619Z,2.78
2023-02-21T16:03:36.402Z,3.03
2023-02-21T16:06:17.166Z,2.58
2023-02-21T16:09:01.817Z,2.53
2023-02-21T16:11:41.001Z,2.85
2023-02-21T16:14:17.209Z,2.97
2023-02-21T16:16:45.122Z,2.65
2023-02-21T16:19:14.490Z,2.85
2023-02-21T16:21:42.354Z,2.00
2023-02-21T16:24:30.701Z,2.67
2023-02-21T16:27:05.017Z,2.75
2023-02-21T16:29:33.181Z,3.78
2023-02-21T16:32:01.119Z,2.83
2023-02-21T16:34:33.112Z,2.47
2023-02-21T16:37:06.395Z,3.03
2023-02-21T16:39:34.425Z,3.55
2023-02-21T16:42:02.260Z,3.20
2023-02-21T16:44:30.364Z,2.88
2023-02-21T16:46:58.280Z,3.25
2023-02-21T16:49:26.180Z,2.83
2023-02-21T16:51:55.499Z,2.70
2023-02-21T16:54:23.528Z,3.10
2023-02-21T16:56:53.232Z,2.78
2023-02-21T16:59:22.930Z,3.00
2023-02-21T17:01:50.919Z,3.05
2023-02-21T17:04:21.185Z,2.72
2023-02-21T17:06:53.004Z,2.70
2023-02-21T17:09:23.612Z,2.38
2023-02-21T17:11:51.565Z,2.80
2023-02-21T17:14:19.593Z,2.78
2023-02-21T17:16:47.500Z,2.70
2023-02-21T17:19:16.640Z,2.30
2023-02-21T17:21:45.796Z,2.38
2023-02-21T17:24:15.434Z,2.97
2023-02-21T17:26:44.843Z,3.13
2023-02-21T17:29:13.000Z,2.72
2023-02-21T17:31:40.878Z,3.22
2023-02-21T17:34:09.433Z,2.22
2023-02-21T17:36:37.287Z,3.17
2023-02-21T17:39:06.220Z,2.50
2023-02-21T17:41:34.881Z,3.03
2023-02-21T17:44:04.046Z,2.70
2023-02-21T17:46:32.426Z,3.65
2023-02-21T17:49:00.294Z,2.97
2023-02-21T17:51:28.104Z,3.17
2023-02-21T17:53:56.628Z,3.42
2023-02-21T17:56:25.490Z,3.10
2023-02-21T17:58:55.128Z,2.38
2023-02-21T18:01:25.317Z,2.88
2023-02-21T18:03:53.188Z,2.72
2023-02-21T18:06:22.289Z,2.20
2023-02-21T18:08:50.157Z,2.30
2023-02-21T18:11:18.791Z,2.97
2023-02-21T18:13:46.653Z,2.60
2023-02-21T18:16:14.737Z,2.30
2023-02-21T18:18:44.580Z,2.83
2023-02-21T18:21:13.010Z,3.85
2023-02-21T18:23:44.502Z,2.50
2023-02-21T18:26:12.898Z,2.97
2023-02-21T18:28:40.892Z,2.67
2023-02-21T18:31:10.903Z,2.90
2023-02-21T18:33:38.988Z,2.92
2023-02-21T18:36:09.822Z,2.75
2023-02-21T18:38:40.061Z,2.35
2023-02-21T18:41:11.484Z,2.47
2023-02-21T18:43:40.671Z,2.97
2023-02-21T18:46:10.892Z,2.65
2023-02-21T18:48:39.318Z,2.40
2023-02-21T18:51:11.333Z,3.30
2023-02-21T18:53:39.540Z,1.87
2023-02-21T18:56:10.559Z,3.00
2023-02-21T18:58:38.712Z,2.70
2023-02-21T19:01:07.164Z,2.22
2023-02-21T19:03:35.219Z,2.55
2023-02-21T19:06:03.071Z,2.72
2023-02-21T19:08:32.369Z,2.30
2023-02-21T19:11:00.244Z,2.63
2023-02-21T19:13:28.064Z,3.40
2023-02-21T19:15:55.903Z,3.60
2023-02-21T19:18:23.761Z,2.50
2023-02-21T19:20:51.581Z,2.60
2023-02-21T19:23:19.414Z,2.70
2023-02-21T19:25:48.733Z,2.50
2023-02-21T19:28:16.641Z,2.22
2023-02-21T19:30:44.555Z,2.60
2023-02-21T19:33:12.488Z,2.42
2023-02-21T19:35:40.368Z,2.92
2023-02-21T19:38:09.737Z,2.80
2023-02-21T19:40:37.724Z,2.38
2023-02-21T19:43:07.408Z,3.20
2023-02-21T19:45:35.381Z,2.40
2023-02-21T19:48:03.301Z,2.90
2023-02-21T19:50:31.746Z,2.22
2023-02-21T19:52:59.750Z,2.83
2023-02-21T19:55:29.699Z,2.25
2023-02-21T19:57:57.607Z,3.75
2023-02-21T20:00:27.295Z,1.90
2023-02-21T20:02:56.733Z,2.95
2023-02-21T20:05:24.570Z,2.60
2023-02-21T20:07:52.417Z,2.97
2023-02-21T20:10:25.318Z,3.33
2023-02-21T20:12:53.588Z,2.83
2023-02-21T20:15:21.495Z,2.10
2023-02-21T20:17:52.085Z,2.28
2023-02-21T20:20:20.170Z,2.83
2023-02-21T20:22:47.981Z,2.53
2023-02-21T20:25:16.040Z,2.92
2023-02-21T20:27:43.959Z,3.33
2023-02-21T20:30:12.971Z,2.33
2023-02-21T20:32:41.727Z,2.85
2023-02-21T20:35:12.701Z,2.72
2023-02-21T20:37:40.850Z,2.78
2023-02-21T20:40:11.186Z,3.38
2023-02-21T20:42:39.338Z,3.00
2023-02-21T20:45:10.522Z,2.88
2023-02-21T20:47:38.651Z,3.05
2023-02-21T20:50:07.946Z,2.80
2023-02-21T20:52:37.191Z,2.38
2023-02-21T20:55:05.454Z,2.80
2023-02-21T20:57:33.928Z,3.35
2023-02-21T21:00:01.850Z,2.20
2023-02-21T21:02:30.039Z,3.15
2023-02-21T21:04:57.884Z,3.08
2023-02-21T21:07:25.877Z,3.28
2023-02-21T21:09:55.083Z,2.53
2023-02-21T21:12:24.507Z,2.80
2023-02-21T21:14:54.134Z,2.60
2023-02-21T21:17:22.550Z,2.75
2023-02-21T21:19:51.185Z,2.47
2023-02-21T21:22:21.485Z,2.55
2023-02-21T21:24:51.526Z,2.80
2023-02-21T21:27:21.685Z,2.50
2023-02-21T21:29:50.076Z,2.65
2023-02-21T21:32:19.909Z,3.50
2023-02-21T21:34:49.007Z,2.72
2023-02-21T21:37:18.490Z,2.42
2023-02-21T21:39:49.270Z,2.47
2023-02-21T21:42:18.635Z,3.08
2023-02-21T21:44:51.967Z,2.65
2023-02-21T21:47:21.859Z,2.80
2023-02-21T21:49:50.461Z,1.95
2023-02-21T21:52:19.887Z,2.78
2023-02-21T21:54:48.649Z,3.22
2023-02-21T21:57:18.965Z,2.72
2023-02-21T21:59:50.277Z,2.85
2023-02-21T22:02:18.288Z,2.67
2023-02-21T22:04:46.319Z,3.50
2023-02-21T22:07:14.214Z,2.47
2023-02-21T22:09:42.685Z,3.30
2023-02-21T22:12:12.268Z,2.88
2023-02-21T22:14:40.711Z,2.30
2023-02-21T22:17:11.686Z,2.80
2023-02-21T22:19:39.641Z,2.38
2023-02-21T22:22:08.359Z,2.67
2023-02-21T22:24:39.178Z,2.28
2023-02-21T22:27:07.035Z,2.15
2023-02-21T22:29:35.821Z,2.80
2023-02-21T22:32:04.343Z,3.08
2023-02-21T22:34:33.581Z,2.33
2023-02-21T22:37:01.425Z,2.97
2023-02-21T22:39:29.224Z,2.47
2023-02-21T22:41:57.154Z,2.65
2023-02-21T22:44:28.080Z,2.92
2023-02-21T22:46:59.449Z,2.30
2023-02-21T22:49:27.822Z,2.53
2023-02-21T22:51:58.066Z,2.10
2023-02-21T22:54:26.066Z,2.92
2023-02-21T22:56:55.077Z,2.45
2023-02-21T22:59:25.298Z,2.33
2023-02-21T23:01:53.331Z,2.88
2023-02-21T23:04:26.535Z,2.42
2023-02-21T23:06:54.959Z,2.80
2023-02-21T23:09:24.825Z,2.33
2023-02-21T23:11:54.637Z,3.38
2023-02-21T23:14:23.119Z,2.15
2023-02-21T23:16:51.439Z,2.90
2023-02-21T23:19:19.338Z,2.75
2023-02-21T23:21:48.698Z,2.97
2023-02-21T23:24:17.521Z,2.58
2023-02-21T23:26:47.346Z,2.50
2023-02-21T23:29:17.087Z,2.58
2023-02-21T23:31:45.386Z,2.63
2023-02-21T23:34:13.643Z,3.22
2023-02-21T23:36:41.508Z,2.55
2023-02-21T23:39:10.166Z,3.00
2023-02-21T23:41:40.512Z,2.80
2023-02-21T23:44:11.115Z,2.80
2023-02-21T23:46:41.676Z,2.38
2023-02-21T23:49:10.911Z,2.67
2023-02-21T23:51:38.927Z,2.67
2023-02-21T23:54:08.023Z,2.80
2023-02-21T23:56:36.562Z,2.20
2023-02-21T23:59:06.108Z,2.53
